sensor_id;sensor_type;location;lat;lon;timestamp;P1;durP1;ratioP1;P2;durP2;ratioP2
57325;SDS011;43161;50.950;18.224;2022-08-19T00:00:13;15.70;;;8.60;;
57325;SDS011;43161;50.950;18.224;2022-08-19T00:02:41;11.60;;;8.70;;
57325;SDS011;43161;50.950;18.224;2022-08-19T00:05:08;10.90;;;8.40;;
57325;SDS011;43161;50.950;18.224;2022-08-19T00:07:35;13.90;;;8.50;;
57325;SDS011;43161;50.950;18.224;2022-08-19T00:10:00;14.30;;;8.40;;
57325;SDS011;43161;50.950;18.224;2022-08-19T00:12:26;9.20;;;7.80;;
57325;SDS011;43161;50.950;18.224;2022-08-19T00:14:52;9.60;;;8.50;;
57325;SDS011;43161;50.950;18.224;2022-08-19T00:17:19;9.80;;;8.20;;
57325;SDS011;43161;50.950;18.224;2022-08-19T00:19:46;11.60;;;9.10;;
57325;SDS011;43161;50.950;18.224;2022-08-19T00:22:12;16.10;;;9.60;;
57325;SDS011;43161;50.950;18.224;2022-08-19T00:24:37;10.80;;;9.20;;
57325;SDS011;43161;50.950;18.224;2022-08-19T00:27:04;14.70;;;9.60;;
57325;SDS011;43161;50.950;18.224;2022-08-19T00:29:30;11.30;;;9.10;;
57325;SDS011;43161;50.950;18.224;2022-08-19T00:31:56;12.80;;;9.80;;
57325;SDS011;43161;50.950;18.224;2022-08-19T00:34:23;12.50;;;9.40;;
57325;SDS011;43161;50.950;18.224;2022-08-19T00:36:51;11.50;;;9.40;;
57325;SDS011;43161;50.950;18.224;2022-08-19T00:39:17;12.20;;;9.30;;
57325;SDS011;43161;50.950;18.224;2022-08-19T00:41:44;14.20;;;9.80;;
57325;SDS011;43161;50.950;18.224;2022-08-19T00:44:18;17.60;;;9.70;;
57325;SDS011;43161;50.950;18.224;2022-08-19T00:46:47;12.70;;;9.30;;
57325;SDS011;43161;50.950;18.224;2022-08-19T00:49:36;13.20;;;9.10;;
57325;SDS011;43161;50.950;18.224;2022-08-19T00:54:30;12.10;;;10.20;;
57325;SDS011;43161;50.950;18.224;2022-08-19T00:56:57;11.10;;;9.20;;
57325;SDS011;43161;50.950;18.224;2022-08-19T00:59:24;13.40;;;10.50;;
57325;SDS011;43161;50.950;18.224;2022-08-19T01:01:50;15.90;;;10.90;;
57325;SDS011;43161;50.950;18.224;2022-08-19T01:04:16;15.40;;;10.30;;
57325;SDS011;43161;50.950;18.224;2022-08-19T01:06:41;11.90;;;10.70;;
57325;SDS011;43161;50.950;18.224;2022-08-19T01:09:08;11.60;;;10.10;;
57325;SDS011;43161;50.950;18.224;2022-08-19T01:11:36;15.20;;;10.90;;
57325;SDS011;43161;50.950;18.224;2022-08-19T01:14:05;15.20;;;10.00;;
57325;SDS011;43161;50.950;18.224;2022-08-19T01:16:31;16.40;;;11.30;;
57325;SDS011;43161;50.950;18.224;2022-08-19T01:18:58;16.90;;;11.60;;
57325;SDS011;43161;50.950;18.224;2022-08-19T01:23:51;14.80;;;11.10;;
57325;SDS011;43161;50.950;18.224;2022-08-19T01:26:19;13.60;;;11.80;;
57325;SDS011;43161;50.950;18.224;2022-08-19T01:28:47;14.90;;;12.10;;
57325;SDS011;43161;50.950;18.224;2022-08-19T01:31:16;13.30;;;11.50;;
57325;SDS011;43161;50.950;18.224;2022-08-19T01:33:46;15.40;;;11.60;;
57325;SDS011;43161;50.950;18.224;2022-08-19T01:36:14;14.90;;;12.30;;
57325;SDS011;43161;50.950;18.224;2022-08-19T01:38:48;14.30;;;11.70;;
57325;SDS011;43161;50.950;18.224;2022-08-19T01:41:14;13.70;;;11.90;;
57325;SDS011;43161;50.950;18.224;2022-08-19T01:46:07;18.30;;;12.60;;
57325;SDS011;43161;50.950;18.224;2022-08-19T01:48:34;14.50;;;12.00;;
57325;SDS011;43161;50.950;18.224;2022-08-19T01:51:01;14.80;;;11.50;;
57325;SDS011;43161;50.950;18.224;2022-08-19T01:53:27;16.60;;;11.80;;
57325;SDS011;43161;50.950;18.224;2022-08-19T01:55:53;16.90;;;11.90;;
57325;SDS011;43161;50.950;18.224;2022-08-19T01:58:22;14.90;;;11.80;;
57325;SDS011;43161;50.950;18.224;2022-08-19T02:00:50;17.30;;;13.00;;
57325;SDS011;43161;50.950;18.224;2022-08-19T02:03:16;17.70;;;13.00;;
57325;SDS011;43161;50.950;18.224;2022-08-19T02:05:43;15.40;;;13.10;;
